createdAt,value
2022-10-17T00:01:44.415Z,99555.31
2022-10-17T00:04:31.222Z,99534.56
2022-10-17T00:07:18.085Z,99544.03
2022-10-17T00:10:06.285Z,99508.56
2022-10-17T00:12:53.034Z,99562.19
2022-10-17T00:15:43.745Z,99577.78
2022-10-17T00:18:30.049Z,99555.25
2022-10-17T00:21:20.175Z,99546.59
2022-10-17T00:24:06.818Z,99556.13
2022-10-17T00:26:53.006Z,99555.25
2022-10-17T00:29:39.186Z,99563.88
2022-10-17T00:32:25.792Z,99538.81
2022-10-17T00:35:12.129Z,99527.53
2022-10-17T00:37:58.331Z,99577.72
2022-10-17T00:40:45.177Z,99534.44
2022-10-17T00:44:01.687Z,99544.81
2022-10-17T00:46:48.165Z,99573.38
2022-10-17T00:49:36.638Z,99552.63
2022-10-17T00:52:26.495Z,99582.03
2022-10-17T00:55:21.417Z,99582.91
2022-10-17T00:58:08.408Z,99557.78
2022-10-17T01:00:54.694Z,99581.16
2022-10-17T01:03:41.219Z,99552.63
2022-10-17T01:06:27.399Z,99542.22
2022-10-17T01:09:13.915Z,99563.00
2022-10-17T01:12:10.758Z,99582.91
2022-10-17T01:15:30.777Z,99560.44
2022-10-17T01:18:41.831Z,99569.91
2022-10-17T01:21:37.494Z,99559.53
2022-10-17T01:24:29.909Z,99589.84
2022-10-17T01:27:35.275Z,99588.09
2022-10-17T01:30:59.271Z,99590.72
2022-10-17T01:33:51.689Z,99588.06
2022-10-17T01:36:47.467Z,99564.72
2022-10-17T01:39:47.781Z,99581.22
2022-10-17T01:42:46.108Z,99567.38
2022-10-17T01:45:43.298Z,99568.19
2022-10-17T01:48:35.384Z,99571.66
2022-10-17T01:51:27.992Z,99586.34
2022-10-17T01:54:37.248Z,99582.00
2022-10-17T01:57:30.850Z,99550.81
2022-10-17T02:00:22.141Z,99581.16
2022-10-17T02:03:15.525Z,99540.44
2022-10-17T02:06:04.559Z,99583.72
2022-10-17T02:08:51.649Z,99556.84
2022-10-17T02:11:39.680Z,99565.47
2022-10-17T02:14:46.054Z,99584.50
2022-10-17T02:17:44.359Z,99590.50
2022-10-17T02:20:52.582Z,99575.81
2022-10-17T02:23:41.865Z,99581.00
2022-10-17T02:26:32.356Z,99579.22
2022-10-17T02:29:28.448Z,99582.69
2022-10-17T02:32:25.251Z,99567.09
2022-10-17T02:35:15.164Z,99565.31
2022-10-17T02:38:02.365Z,99589.47
2022-10-17T02:40:51.580Z,99572.13
2022-10-17T02:43:39.574Z,99592.91
2022-10-17T02:46:28.491Z,99556.50
2022-10-17T02:49:23.145Z,99586.91
2022-10-17T02:52:58.026Z,99595.53
2022-10-17T02:55:58.995Z,99577.28
2022-10-17T02:58:51.311Z,99591.16
2022-10-17T03:01:38.062Z,99584.09
2022-10-17T03:04:24.312Z,99596.31
2022-10-17T03:07:10.947Z,99571.94
2022-10-17T03:09:57.549Z,99584.94
2022-10-17T03:12:43.970Z,99569.28
2022-10-17T03:15:31.378Z,99590.91
2022-10-17T03:18:18.398Z,99569.25
2022-10-17T03:21:06.302Z,99586.53
2022-10-17T03:23:53.493Z,99603.84
2022-10-17T03:26:42.123Z,99584.75
2022-10-17T03:29:28.422Z,99599.50
2022-10-17T03:32:16.105Z,99570.03
2022-10-17T03:35:03.414Z,99608.13
2022-10-17T03:37:50.048Z,99590.78
2022-10-17T03:40:38.554Z,99554.34
2022-10-17T03:43:24.954Z,99599.41
2022-10-17T03:46:11.419Z,99579.44
2022-10-17T03:48:58.042Z,99612.25
2022-10-17T03:51:44.854Z,99614.84
2022-10-17T03:54:34.233Z,99581.06
2022-10-17T03:57:21.103Z,99605.34
2022-10-17T04:00:08.675Z,99609.53
2022-10-17T04:03:00.415Z,99610.38
2022-10-17T04:05:46.909Z,99628.47
2022-10-17T04:08:34.202Z,99625.88
2022-10-17T04:11:40.754Z,99616.31
2022-10-17T04:14:27.403Z,99619.72
2022-10-17T04:17:14.122Z,99627.50
2022-10-17T04:20:00.350Z,99633.44
2022-10-17T04:22:47.278Z,99622.19
2022-10-17T04:25:36.078Z,99642.09
2022-10-17T04:28:23.738Z,99633.38
2022-10-17T04:31:13.009Z,99643.78
2022-10-17T04:34:18.787Z,99662.78
2022-10-17T04:37:05.304Z,99635.88
2022-10-17T04:39:53.055Z,99628.06
2022-10-17T04:42:39.853Z,99641.13
2022-10-17T04:45:27.736Z,99630.69
2022-10-17T04:48:17.810Z,99640.28
2022-10-17T04:51:15.810Z,99641.13
2022-10-17T04:54:31.398Z,99603.94
2022-10-17T04:57:25.928Z,99623.81
2022-10-17T05:00:23.186Z,99645.50
2022-10-17T05:03:21.492Z,99637.72
2022-10-17T05:06:10.891Z,99630.69
2022-10-17T05:08:58.748Z,99646.31
2022-10-17T05:11:45.840Z,99655.03
2022-10-17T05:14:32.606Z,99647.28
2022-10-17T05:17:20.051Z,99649.00
2022-10-17T05:20:07.100Z,99648.97
2022-10-17T05:22:55.290Z,99636.84
2022-10-17T05:25:41.844Z,99637.72
2022-10-17T05:28:28.357Z,99634.31
2022-10-17T05:31:18.746Z,99642.06
2022-10-17T05:34:07.957Z,99631.63
2022-10-17T05:36:57.738Z,99643.69
2022-10-17T05:39:47.952Z,99641.97
2022-10-17T05:42:37.641Z,99663.50
2022-10-17T05:45:24.407Z,99641.75
2022-10-17T05:48:10.715Z,99634.78
2022-10-17T05:51:02.029Z,99668.81
2022-10-17T05:53:49.294Z,99640.06
2022-10-17T05:56:42.529Z,99677.38
2022-10-17T05:59:29.100Z,99649.50
2022-10-17T06:02:21.821Z,99664.38
2022-10-17T06:05:08.614Z,99685.91
2022-10-17T06:07:58.163Z,99657.41
2022-10-17T06:10:51.514Z,99685.16
2022-10-17T06:13:39.113Z,99688.63
2022-10-17T06:16:32.723Z,99668.81
2022-10-17T06:19:19.359Z,99669.69
2022-10-17T06:22:07.469Z,99680.03
2022-10-17T06:24:55.893Z,99703.50
2022-10-17T06:27:42.697Z,99702.59
2022-10-17T06:30:30.572Z,99708.78
2022-10-17T06:33:17.885Z,99695.84
2022-10-17T06:36:05.674Z,99710.59
2022-10-17T06:38:51.845Z,99731.34
2022-10-17T06:41:47.789Z,99683.66
2022-10-17T06:44:37.707Z,99715.81
2022-10-17T06:48:02.618Z,99739.34
2022-10-17T06:51:12.431Z,99743.66
2022-10-17T06:54:07.911Z,99729.81
2022-10-17T06:57:14.495Z,99734.25
2022-10-17T07:00:26.845Z,99755.09
2022-10-17T07:03:15.907Z,99755.19
2022-10-17T07:06:02.852Z,99745.75
2022-10-17T07:08:50.405Z,99755.41
2022-10-17T07:11:38.202Z,99746.03
2022-10-17T07:14:31.695Z,99726.16
2022-10-17T07:17:19.102Z,99712.38
2022-10-17T07:20:06.933Z,99728.97
2022-10-17T07:22:55.693Z,99731.59
2022-10-17T07:25:42.121Z,99745.50
2022-10-17T07:28:29.779Z,99724.78
2022-10-17T07:31:22.593Z,99766.44
2022-10-17T07:34:08.777Z,99771.69
2022-10-17T07:36:55.331Z,99767.38
2022-10-17T07:39:42.514Z,99771.72
2022-10-17T07:42:30.109Z,99766.56
2022-10-17T07:45:18.143Z,99770.06
2022-10-17T07:48:05.137Z,99751.88
2022-10-17T07:50:51.708Z,99752.72
2022-10-17T07:53:39.829Z,99742.34
2022-10-17T07:56:29.547Z,99771.78
2022-10-17T07:59:19.380Z,99762.25
2022-10-17T08:02:08.065Z,99766.56
2022-10-17T08:04:54.449Z,99743.16
2022-10-17T08:07:41.650Z,99757.03
2022-10-17T08:10:29.566Z,99768.28
2022-10-17T08:13:16.070Z,99775.16
2022-10-17T08:16:03.873Z,99784.66
2022-10-17T08:18:50.455Z,99757.78
2022-10-17T08:21:38.139Z,99775.97
2022-10-17T08:24:24.874Z,99764.66
2022-10-17T08:27:13.428Z,99760.25
2022-10-17T08:29:59.750Z,99771.44
2022-10-17T08:32:46.114Z,99786.09
2022-10-17T08:35:32.314Z,99792.13
2022-10-17T08:38:20.989Z,99782.50
2022-10-17T08:41:33.046Z,99774.63
2022-10-17T08:44:33.602Z,99789.94
2022-10-17T08:47:28.262Z,99770.75
2022-10-17T08:50:21.622Z,99788.94
2022-10-17T08:53:27.520Z,99787.94
2022-10-17T08:56:25.051Z,99790.44
2022-10-17T08:59:25.473Z,99783.41
2022-10-17T09:02:30.525Z,99789.34
2022-10-17T09:05:35.317Z,99756.22
2022-10-17T09:08:53.273Z,99771.53
2022-10-17T09:11:57.929Z,99756.59
2022-10-17T09:14:58.588Z,99778.06
2022-10-17T09:17:53.075Z,99764.16
2022-10-17T09:20:53.975Z,99766.53
2022-10-17T09:23:49.545Z,99764.50
2022-10-17T09:26:36.549Z,99771.03
2022-10-17T09:29:25.349Z,99768.00
2022-10-17T09:32:17.442Z,99767.63
2022-10-17T09:35:04.605Z,99764.66
2022-10-17T09:37:52.343Z,99767.72
2022-10-17T09:40:40.195Z,99746.56
2022-10-17T09:43:27.005Z,99748.63
2022-10-17T09:46:26.969Z,99765.38
2022-10-17T09:49:18.554Z,99746.88
2022-10-17T09:52:12.024Z,99760.28
2022-10-17T09:55:18.035Z,99758.97
2022-10-17T09:58:07.047Z,99767.34
2022-10-17T10:00:53.517Z,99765.09
2022-10-17T10:03:39.761Z,99735.38
2022-10-17T10:06:26.137Z,99771.00
2022-10-17T10:09:27.477Z,99768.91
2022-10-17T10:12:26.844Z,99767.78
2022-10-17T10:15:32.685Z,99752.78
2022-10-17T10:18:25.316Z,99767.75
2022-10-17T10:21:15.266Z,99764.66
2022-10-17T10:24:06.688Z,99767.63
2022-10-17T10:26:55.830Z,99771.06
2022-10-17T10:29:49.397Z,99764.75
2022-10-17T10:32:37.277Z,99763.94
2022-10-17T10:35:34.526Z,99770.53
2022-10-17T10:38:20.957Z,99769.22
2022-10-17T10:41:11.696Z,99757.09
2022-10-17T10:43:58.317Z,99743.81
2022-10-17T10:46:44.682Z,99779.41
2022-10-17T10:49:32.234Z,99762.09
2022-10-17T10:52:31.435Z,99766.16
2022-10-17T10:55:24.855Z,99771.28
2022-10-17T10:58:40.277Z,99780.22
2022-10-17T11:01:54.000Z,99782.19
2022-10-17T11:05:00.421Z,99784.50
2022-10-17T11:07:53.201Z,99775.59
2022-10-17T11:10:51.074Z,99746.53
2022-10-17T11:14:03.578Z,99781.88
2022-10-17T11:17:17.242Z,99773.97
2022-10-17T11:20:10.002Z,99780.56
2022-10-17T11:23:03.092Z,99786.41
2022-10-17T11:25:51.838Z,99761.19
2022-10-17T11:28:38.357Z,99769.03
2022-10-17T11:31:30.969Z,99764.56
2022-10-17T11:34:26.103Z,99770.47
2022-10-17T11:37:28.158Z,99754.00
2022-10-17T11:40:23.636Z,99777.97
2022-10-17T11:43:17.575Z,99773.81
2022-10-17T11:46:21.433Z,99780.06
2022-10-17T11:49:20.402Z,99790.41
2022-10-17T11:52:55.341Z,99788.97
2022-10-17T11:55:44.348Z,99769.00
2022-10-17T11:58:45.438Z,99762.41
2022-10-17T12:01:49.258Z,99777.97
2022-10-17T12:04:49.705Z,99788.66
2022-10-17T12:07:51.349Z,99782.91
2022-10-17T12:10:46.861Z,99783.75
2022-10-17T12:13:33.351Z,99786.31
2022-10-17T12:16:19.753Z,99784.28
2022-10-17T12:19:23.478Z,99787.34
2022-10-17T12:22:22.798Z,99749.31
2022-10-17T12:25:18.976Z,99787.97
2022-10-17T12:28:25.918Z,99796.34
2022-10-17T12:31:33.427Z,99793.69
2022-10-17T12:34:23.817Z,99758.69
2022-10-17T12:37:11.784Z,99794.19
2022-10-17T12:39:57.948Z,99793.06
2022-10-17T12:42:50.969Z,99743.72
2022-10-17T12:45:53.627Z,99788.59
2022-10-17T12:48:39.737Z,99790.06
2022-10-17T12:51:35.737Z,99782.81
2022-10-17T12:54:23.954Z,99767.34
2022-10-17T12:57:44.634Z,99796.69
2022-10-17T13:00:49.711Z,99790.97
2022-10-17T13:03:48.852Z,99795.06
2022-10-17T13:06:40.312Z,99797.72
2022-10-17T13:09:30.482Z,99796.59
2022-10-17T13:12:25.013Z,99808.63
2022-10-17T13:15:18.589Z,99800.63
2022-10-17T13:18:05.510Z,99800.47
2022-10-17T13:21:00.362Z,99804.06
2022-10-17T13:23:49.223Z,99801.31
2022-10-17T13:26:35.665Z,99798.78
2022-10-17T13:29:23.410Z,99801.88
2022-10-17T13:32:11.107Z,99812.16
2022-10-17T13:35:13.163Z,99811.59
2022-10-17T13:38:00.741Z,99790.03
2022-10-17T13:40:50.720Z,99786.50
2022-10-17T13:43:37.067Z,99796.03
2022-10-17T13:46:39.903Z,99809.63
2022-10-17T13:49:36.871Z,99813.19
2022-10-17T13:52:30.731Z,99811.59
2022-10-17T13:55:20.138Z,99800.97
2022-10-17T13:58:15.396Z,99800.00
2022-10-17T14:01:02.264Z,99811.66
2022-10-17T14:03:54.056Z,99794.41
2022-10-17T14:06:51.267Z,99816.38
2022-10-17T14:09:38.491Z,99793.31
2022-10-17T14:12:25.288Z,99802.22
2022-10-17T14:15:15.773Z,99817.53
2022-10-17T14:18:07.835Z,99746.31
2022-10-17T14:21:34.008Z,99800.41
2022-10-17T14:24:26.183Z,99771.66
2022-10-17T14:27:31.799Z,99805.47
2022-10-17T14:30:51.689Z,99800.00
2022-10-17T14:33:36.334Z,99803.31
2022-10-17T14:36:34.955Z,99785.31
2022-10-17T14:39:24.222Z,99804.69
2022-10-17T14:42:21.602Z,99791.59
2022-10-17T14:45:14.728Z,99795.41
2022-10-17T14:48:10.393Z,99788.72
2022-10-17T14:51:14.091Z,99812.91
2022-10-17T14:54:22.244Z,99819.97
2022-10-17T14:57:19.688Z,99804.25
2022-10-17T15:00:06.557Z,99819.44
2022-10-17T15:02:54.960Z,99816.09
2022-10-17T15:05:41.615Z,99804.13
2022-10-17T15:08:27.761Z,99813.13
2022-10-17T15:11:14.286Z,99801.66
2022-10-17T15:14:00.733Z,99803.59
2022-10-17T15:16:46.937Z,99818.53
2022-10-17T15:19:33.382Z,99824.97
2022-10-17T15:22:20.160Z,99798.03
2022-10-17T15:25:06.858Z,99829.34
2022-10-17T15:27:53.585Z,99830.34
2022-10-17T15:30:40.164Z,99828.69
2022-10-17T15:33:26.466Z,99831.00
2022-10-17T15:36:37.386Z,99820.84
2022-10-17T15:39:23.816Z,99809.19
2022-10-17T15:42:11.872Z,99832.47
2022-10-17T15:44:58.525Z,99830.56
2022-10-17T15:47:55.719Z,99814.00
2022-10-17T15:50:42.314Z,99836.75
2022-10-17T15:53:28.444Z,99826.31
2022-10-17T15:56:24.905Z,99840.00
2022-10-17T15:59:15.376Z,99822.19
2022-10-17T16:02:01.454Z,99827.25
2022-10-17T16:04:49.741Z,99859.69
2022-10-17T16:07:36.772Z,99855.16
2022-10-17T16:10:23.888Z,99859.09
2022-10-17T16:13:18.108Z,99844.03
2022-10-17T16:16:04.471Z,99859.09
2022-10-17T16:18:50.713Z,99860.59
2022-10-17T16:21:39.905Z,99855.19
2022-10-17T16:24:26.278Z,99857.66
2022-10-17T16:27:12.526Z,99838.22
2022-10-17T16:29:59.027Z,99855.09
2022-10-17T16:32:45.991Z,99873.03
2022-10-17T16:35:36.527Z,99857.81
2022-10-17T16:38:23.914Z,99862.66
2022-10-17T16:41:20.395Z,99885.66
2022-10-17T16:44:08.493Z,99882.53
2022-10-17T16:46:54.642Z,99850.72
2022-10-17T16:49:44.402Z,99872.69
2022-10-17T16:52:31.985Z,99886.72
2022-10-17T16:55:18.953Z,99866.97
2022-10-17T16:58:05.136Z,99887.22
2022-10-17T17:00:51.369Z,99876.19
2022-10-17T17:03:39.137Z,99909.31
2022-10-17T17:06:28.733Z,99908.63
2022-10-17T17:09:14.911Z,99902.81
2022-10-17T17:12:01.202Z,99911.53
2022-10-17T17:14:47.364Z,99882.13
2022-10-17T17:17:50.258Z,99874.44
2022-10-17T17:20:38.974Z,99870.28
2022-10-17T17:23:25.551Z,99901.59
2022-10-17T17:26:15.126Z,99922.50
2022-10-17T17:29:02.202Z,99907.16
2022-10-17T17:31:49.234Z,99916.72
2022-10-17T17:34:36.942Z,99922.06
2022-10-17T17:37:23.369Z,99899.63
2022-10-17T17:40:10.533Z,99925.66
2022-10-17T17:42:56.758Z,99929.16
2022-10-17T17:45:42.880Z,99907.63
2022-10-17T17:48:29.446Z,99933.69
2022-10-17T17:51:18.416Z,99932.03
2022-10-17T17:54:05.145Z,99921.63
2022-10-17T17:56:51.585Z,99916.50
2022-10-17T17:59:39.621Z,99943.44
2022-10-17T18:02:25.718Z,99918.34
2022-10-17T18:05:11.797Z,99929.66
2022-10-17T18:07:58.643Z,99936.66
2022-10-17T18:10:50.591Z,99957.50
2022-10-17T18:13:36.654Z,99954.13
2022-10-17T18:16:23.066Z,99958.53
2022-10-17T18:19:11.445Z,99954.22
2022-10-17T18:21:57.678Z,99957.75
2022-10-17T18:24:44.154Z,99969.06
2022-10-17T18:27:30.586Z,99929.22
2022-10-17T18:30:16.638Z,99965.63
2022-10-17T18:33:02.917Z,99960.47
2022-10-17T18:35:49.239Z,99957.03
2022-10-17T18:38:35.853Z,99938.84
2022-10-17T18:41:24.425Z,99982.22
2022-10-17T18:44:12.589Z,99955.31
2022-10-17T18:47:03.020Z,99981.28
2022-10-17T18:49:51.428Z,99986.53
2022-10-17T18:52:37.897Z,99989.16
2022-10-17T18:55:24.963Z,99970.97
2022-10-17T18:58:11.328Z,99976.19
2022-10-17T19:01:03.573Z,99989.22
2022-10-17T19:03:51.908Z,99964.09
2022-10-17T19:06:39.598Z,99997.09
2022-10-17T19:09:25.899Z,99984.94
2022-10-17T19:12:12.087Z,99974.53
2022-10-17T19:14:58.303Z,99991.88
2022-10-17T19:17:44.750Z,99981.50
2022-10-17T19:20:31.059Z,99965.94
2022-10-17T19:23:17.151Z,99984.13
2022-10-17T19:26:12.381Z,99993.69
2022-10-17T19:29:00.512Z,99984.19
2022-10-17T19:31:48.683Z,99982.41
2022-10-17T19:34:35.261Z,99965.94
2022-10-17T19:37:21.550Z,99973.78
2022-10-17T19:40:08.818Z,99985.91
2022-10-17T19:42:54.956Z,99955.53
2022-10-17T19:45:41.485Z,99967.69
2022-10-17T19:48:30.754Z,99967.69
2022-10-17T19:51:18.673Z,99966.84
2022-10-17T19:54:04.906Z,99951.22
2022-10-17T19:56:51.768Z,99950.38
2022-10-17T19:59:38.087Z,99933.91
2022-10-17T20:02:24.444Z,99957.31
2022-10-17T20:05:18.619Z,99959.91
2022-10-17T20:08:05.440Z,99964.28
2022-10-17T20:10:51.882Z,99970.34
2022-10-17T20:13:38.999Z,99978.13
2022-10-17T20:16:30.046Z,99985.94
2022-10-17T20:19:16.343Z,99952.97
2022-10-17T20:22:05.641Z,99987.66
2022-10-17T20:24:59.194Z,99962.53
2022-10-17T20:27:46.614Z,99981.59
2022-10-17T20:30:33.592Z,99985.94
2022-10-17T20:33:20.793Z,100000.66
2022-10-17T20:36:16.576Z,99980.66
2022-10-17T20:39:03.168Z,100000.63
2022-10-17T20:41:49.764Z,99990.19
2022-10-17T20:44:36.626Z,99967.63
2022-10-17T20:47:47.179Z,99993.63
2022-10-17T20:50:37.470Z,100010.97
2022-10-17T20:53:39.225Z,99979.75
2022-10-17T20:56:29.795Z,100008.34
2022-10-17T20:59:17.189Z,99995.31
2022-10-17T21:02:05.442Z,99988.38
2022-10-17T21:04:51.762Z,100010.91
2022-10-17T21:07:38.254Z,99999.66
2022-10-17T21:10:34.872Z,99998.72
2022-10-17T21:13:21.695Z,99985.69
2022-10-17T21:16:19.203Z,100010.00
2022-10-17T21:19:06.289Z,99989.16
2022-10-17T21:21:52.660Z,99996.09
2022-10-17T21:24:38.949Z,100015.16
2022-10-17T21:27:25.285Z,100009.13
2022-10-17T21:30:11.794Z,100009.09
2022-10-17T21:32:58.677Z,99988.22
2022-10-17T21:35:45.346Z,99996.91
2022-10-17T21:38:31.742Z,100015.97
2022-10-17T21:41:21.340Z,100022.94
2022-10-17T21:44:15.273Z,99991.66
2022-10-17T21:47:01.542Z,99996.84
2022-10-17T21:49:47.745Z,99986.44
2022-10-17T21:52:34.086Z,99989.00
2022-10-17T21:55:20.821Z,100015.91
2022-10-17T21:58:07.288Z,99998.53
2022-10-17T22:01:01.923Z,100014.16
2022-10-17T22:03:50.414Z,99999.41
2022-10-17T22:06:40.632Z,99979.44
2022-10-17T22:09:27.658Z,100006.34
2022-10-17T22:12:13.905Z,99988.09
2022-10-17T22:15:00.569Z,99995.16
2022-10-17T22:17:47.093Z,100005.50
2022-10-17T22:20:34.963Z,99984.63
2022-10-17T22:23:21.496Z,99985.47
2022-10-17T22:26:08.579Z,99992.44
2022-10-17T22:28:55.629Z,99995.91
2022-10-17T22:31:42.435Z,99987.25
2022-10-17T22:34:28.829Z,99986.38
2022-10-17T22:37:15.226Z,99985.53
2022-10-17T22:40:01.997Z,99980.31
2022-10-17T22:42:48.303Z,99953.38
2022-10-17T22:45:35.020Z,99962.00
2022-10-17T22:48:22.269Z,99958.53
2022-10-17T22:51:08.593Z,99984.56
2022-10-17T22:53:54.985Z,99981.06
2022-10-17T22:56:41.146Z,99962.75
2022-10-17T22:59:27.339Z,99956.75
2022-10-17T23:02:13.971Z,99981.19
2022-10-17T23:05:00.199Z,99973.31
2022-10-17T23:07:46.318Z,99939.38
2022-10-17T23:10:33.373Z,99959.31
2022-10-17T23:13:21.184Z,99970.63
2022-10-17T23:16:08.399Z,99940.19
2022-10-17T23:18:54.689Z,99956.69
2022-10-17T23:21:40.861Z,99964.50
2022-10-17T23:24:27.470Z,99954.94
2022-10-17T23:27:14.080Z,99901.06
2022-10-17T23:30:00.214Z,99953.16
2022-10-17T23:32:46.628Z,99921.84
2022-10-17T23:35:33.935Z,99934.88
2022-10-17T23:38:20.000Z,99953.06
2022-10-17T23:41:06.752Z,99919.19
2022-10-17T23:43:53.487Z,99942.63
2022-10-17T23:46:39.658Z,99941.75
2022-10-17T23:49:25.694Z,99946.09
2022-10-17T23:52:12.038Z,99936.50
2022-10-17T23:54:58.444Z,99953.84
2022-10-17T23:57:44.830Z,99940.84
